sensor_id;sensor_type;location;lat;lon;timestamp;P1;durP1;ratioP1;P2;durP2;ratioP2
13483;SDS011;6814;57.786;12.080;2023-03-19T00:01:33;38.27;;;12.93;;
13483;SDS011;6814;57.786;12.080;2023-03-19T00:03:59;28.70;;;10.93;;
13483;SDS011;6814;57.786;12.080;2023-03-19T00:06:25;24.70;;;11.07;;
13483;SDS011;6814;57.786;12.080;2023-03-19T00:08:52;27.03;;;11.50;;
13483;SDS011;6814;57.786;12.080;2023-03-19T00:11:18;29.97;;;12.50;;
13483;SDS011;6814;57.786;12.080;2023-03-19T00:13:45;64.73;;;14.13;;
13483;SDS011;6814;57.786;12.080;2023-03-19T00:16:12;203.83;;;19.00;;
13483;SDS011;6814;57.786;12.080;2023-03-19T00:18:39;48.73;;;14.50;;
13483;SDS011;6814;57.786;12.080;2023-03-19T00:21:05;59.47;;;17.42;;
13483;SDS011;6814;57.786;12.080;2023-03-19T00:23:32;51.37;;;15.23;;
13483;SDS011;6814;57.786;12.080;2023-03-19T00:25:59;74.63;;;16.23;;
13483;SDS011;6814;57.786;12.080;2023-03-19T00:28:25;162.70;;;19.77;;
13483;SDS011;6814;57.786;12.080;2023-03-19T00:30:52;235.63;;;22.63;;
13483;SDS011;6814;57.786;12.080;2023-03-19T00:33:20;189.77;;;20.77;;
13483;SDS011;6814;57.786;12.080;2023-03-19T00:35:46;176.90;;;19.43;;
13483;SDS011;6814;57.786;12.080;2023-03-19T00:38:13;63.37;;;15.93;;
13483;SDS011;6814;57.786;12.080;2023-03-19T00:40:40;235.87;;;21.93;;
13483;SDS011;6814;57.786;12.080;2023-03-19T00:43:06;85.80;;;17.73;;
13483;SDS011;6814;57.786;12.080;2023-03-19T00:45:33;179.77;;;21.33;;
13483;SDS011;6814;57.786;12.080;2023-03-19T00:47:59;68.70;;;16.53;;
13483;SDS011;6814;57.786;12.080;2023-03-19T00:50:27;86.27;;;18.10;;
13483;SDS011;6814;57.786;12.080;2023-03-19T00:52:54;125.27;;;20.87;;
13483;SDS011;6814;57.786;12.080;2023-03-19T00:55:21;109.40;;;18.10;;
13483;SDS011;6814;57.786;12.080;2023-03-19T00:57:48;229.90;;;21.97;;
13483;SDS011;6814;57.786;12.080;2023-03-19T01:00:15;56.70;;;17.37;;
13483;SDS011;6814;57.786;12.080;2023-03-19T01:02:41;334.00;;;27.03;;
13483;SDS011;6814;57.786;12.080;2023-03-19T01:05:08;457.17;;;31.87;;
13483;SDS011;6814;57.786;12.080;2023-03-19T01:07:36;176.30;;;21.37;;
13483;SDS011;6814;57.786;12.080;2023-03-19T01:10:02;211.37;;;22.43;;
13483;SDS011;6814;57.786;12.080;2023-03-19T01:12:29;200.63;;;21.60;;
13483;SDS011;6814;57.786;12.080;2023-03-19T01:14:55;191.60;;;20.70;;
13483;SDS011;6814;57.786;12.080;2023-03-19T01:17:22;106.40;;;18.43;;
13483;SDS011;6814;57.786;12.080;2023-03-19T01:19:48;404.03;;;29.93;;
13483;SDS011;6814;57.786;12.080;2023-03-19T01:22:14;198.30;;;20.60;;
13483;SDS011;6814;57.786;12.080;2023-03-19T01:24:43;79.77;;;17.10;;
13483;SDS011;6814;57.786;12.080;2023-03-19T01:27:10;364.97;;;26.77;;
13483;SDS011;6814;57.786;12.080;2023-03-19T01:29:36;199.03;;;20.53;;
13483;SDS011;6814;57.786;12.080;2023-03-19T01:32:03;201.40;;;20.43;;
13483;SDS011;6814;57.786;12.080;2023-03-19T01:34:30;46.20;;;13.40;;
13483;SDS011;6814;57.786;12.080;2023-03-19T01:36:56;45.47;;;13.57;;
13483;SDS011;6814;57.786;12.080;2023-03-19T01:39:23;31.93;;;13.07;;
13483;SDS011;6814;57.786;12.080;2023-03-19T01:41:51;65.80;;;13.70;;
13483;SDS011;6814;57.786;12.080;2023-03-19T01:44:24;66.50;;;12.63;;
13483;SDS011;6814;57.786;12.080;2023-03-19T01:46:51;29.83;;;12.00;;
13483;SDS011;6814;57.786;12.080;2023-03-19T01:49:18;29.30;;;12.17;;
13483;SDS011;6814;57.786;12.080;2023-03-19T01:51:47;49.73;;;12.67;;
13483;SDS011;6814;57.786;12.080;2023-03-19T01:54:14;45.37;;;13.10;;
13483;SDS011;6814;57.786;12.080;2023-03-19T01:56:42;23.70;;;11.33;;
13483;SDS011;6814;57.786;12.080;2023-03-19T01:59:13;27.13;;;11.97;;
13483;SDS011;6814;57.786;12.080;2023-03-19T02:01:42;25.67;;;11.47;;
13483;SDS011;6814;57.786;12.080;2023-03-19T02:04:11;29.93;;;11.27;;
13483;SDS011;6814;57.786;12.080;2023-03-19T02:06:38;25.87;;;11.13;;
13483;SDS011;6814;57.786;12.080;2023-03-19T02:09:05;35.77;;;10.93;;
13483;SDS011;6814;57.786;12.080;2023-03-19T02:11:32;30.33;;;10.80;;
13483;SDS011;6814;57.786;12.080;2023-03-19T02:13:59;20.50;;;9.73;;
13483;SDS011;6814;57.786;12.080;2023-03-19T02:16:27;21.73;;;10.00;;
13483;SDS011;6814;57.786;12.080;2023-03-19T02:18:53;18.40;;;8.57;;
13483;SDS011;6814;57.786;12.080;2023-03-19T02:21:20;19.77;;;8.47;;
13483;SDS011;6814;57.786;12.080;2023-03-19T02:23:48;41.90;;;10.33;;
13483;SDS011;6814;57.786;12.080;2023-03-19T02:26:18;25.23;;;9.30;;
13483;SDS011;6814;57.786;12.080;2023-03-19T02:28:46;23.37;;;9.33;;
13483;SDS011;6814;57.786;12.080;2023-03-19T02:31:14;27.80;;;9.70;;
13483;SDS011;6814;57.786;12.080;2023-03-19T02:33:41;33.40;;;9.43;;
13483;SDS011;6814;57.786;12.080;2023-03-19T02:36:08;24.83;;;8.30;;
13483;SDS011;6814;57.786;12.080;2023-03-19T02:38:35;16.30;;;8.13;;
13483;SDS011;6814;57.786;12.080;2023-03-19T02:41:05;30.53;;;9.53;;
13483;SDS011;6814;57.786;12.080;2023-03-19T02:43:34;34.43;;;8.47;;
13483;SDS011;6814;57.786;12.080;2023-03-19T02:46:01;32.40;;;8.20;;
13483;SDS011;6814;57.786;12.080;2023-03-19T02:48:28;29.80;;;8.03;;
13483;SDS011;6814;57.786;12.080;2023-03-19T02:50:55;16.80;;;7.20;;
13483;SDS011;6814;57.786;12.080;2023-03-19T02:53:22;32.60;;;8.57;;
13483;SDS011;6814;57.786;12.080;2023-03-19T02:55:48;19.17;;;8.00;;
13483;SDS011;6814;57.786;12.080;2023-03-19T02:58:14;25.57;;;8.63;;
13483;SDS011;6814;57.786;12.080;2023-03-19T03:00:42;57.33;;;8.90;;
13483;SDS011;6814;57.786;12.080;2023-03-19T03:03:09;20.83;;;8.03;;
13483;SDS011;6814;57.786;12.080;2023-03-19T03:05:36;18.27;;;7.73;;
13483;SDS011;6814;57.786;12.080;2023-03-19T03:08:02;19.80;;;8.80;;
13483;SDS011;6814;57.786;12.080;2023-03-19T03:10:29;20.30;;;8.87;;
13483;SDS011;6814;57.786;12.080;2023-03-19T03:12:55;22.23;;;9.23;;
13483;SDS011;6814;57.786;12.080;2023-03-19T03:15:22;22.40;;;9.00;;
13483;SDS011;6814;57.786;12.080;2023-03-19T03:17:50;19.50;;;8.00;;
13483;SDS011;6814;57.786;12.080;2023-03-19T03:20:16;18.27;;;8.23;;
13483;SDS011;6814;57.786;12.080;2023-03-19T03:22:43;16.53;;;7.87;;
13483;SDS011;6814;57.786;12.080;2023-03-19T03:25:10;17.67;;;7.43;;
13483;SDS011;6814;57.786;12.080;2023-03-19T03:27:37;17.23;;;7.37;;
13483;SDS011;6814;57.786;12.080;2023-03-19T03:30:04;21.70;;;8.43;;
13483;SDS011;6814;57.786;12.080;2023-03-19T03:32:32;20.47;;;8.40;;
13483;SDS011;6814;57.786;12.080;2023-03-19T03:35:00;16.43;;;8.00;;
13483;SDS011;6814;57.786;12.080;2023-03-19T03:37:28;15.90;;;7.63;;
13483;SDS011;6814;57.786;12.080;2023-03-19T03:39:54;22.33;;;8.00;;
13483;SDS011;6814;57.786;12.080;2023-03-19T03:42:21;15.53;;;7.60;;
13483;SDS011;6814;57.786;12.080;2023-03-19T03:44:47;15.63;;;6.83;;
13483;SDS011;6814;57.786;12.080;2023-03-19T03:47:14;15.03;;;7.47;;
13483;SDS011;6814;57.786;12.080;2023-03-19T03:49:42;16.37;;;6.87;;
13483;SDS011;6814;57.786;12.080;2023-03-19T03:52:10;13.90;;;6.77;;
13483;SDS011;6814;57.786;12.080;2023-03-19T03:54:36;9.83;;;5.97;;
13483;SDS011;6814;57.786;12.080;2023-03-19T03:57:03;13.70;;;6.90;;
13483;SDS011;6814;57.786;12.080;2023-03-19T03:59:29;12.27;;;6.57;;
13483;SDS011;6814;57.786;12.080;2023-03-19T04:01:56;15.60;;;7.20;;
13483;SDS011;6814;57.786;12.080;2023-03-19T04:04:22;11.23;;;6.27;;
13483;SDS011;6814;57.786;12.080;2023-03-19T04:06:48;13.50;;;6.63;;
13483;SDS011;6814;57.786;12.080;2023-03-19T04:09:16;9.90;;;6.00;;
13483;SDS011;6814;57.786;12.080;2023-03-19T04:11:43;8.77;;;5.67;;
13483;SDS011;6814;57.786;12.080;2023-03-19T04:14:10;9.53;;;6.07;;
13483;SDS011;6814;57.786;12.080;2023-03-19T04:16:36;8.27;;;5.47;;
13483;SDS011;6814;57.786;12.080;2023-03-19T04:19:03;8.17;;;4.90;;
13483;SDS011;6814;57.786;12.080;2023-03-19T04:21:31;7.73;;;5.03;;
13483;SDS011;6814;57.786;12.080;2023-03-19T04:23:58;9.33;;;5.40;;
13483;SDS011;6814;57.786;12.080;2023-03-19T04:26:26;9.60;;;5.73;;
13483;SDS011;6814;57.786;12.080;2023-03-19T04:28:52;6.70;;;5.03;;
13483;SDS011;6814;57.786;12.080;2023-03-19T04:31:18;10.27;;;5.57;;
13483;SDS011;6814;57.786;12.080;2023-03-19T04:33:45;8.73;;;5.43;;
13483;SDS011;6814;57.786;12.080;2023-03-19T04:36:11;8.57;;;5.60;;
13483;SDS011;6814;57.786;12.080;2023-03-19T04:38:38;9.37;;;5.73;;
13483;SDS011;6814;57.786;12.080;2023-03-19T04:41:04;9.97;;;6.40;;
13483;SDS011;6814;57.786;12.080;2023-03-19T04:43:32;9.27;;;5.87;;
13483;SDS011;6814;57.786;12.080;2023-03-19T04:45:58;10.37;;;6.13;;
13483;SDS011;6814;57.786;12.080;2023-03-19T04:48:25;10.93;;;6.37;;
13483;SDS011;6814;57.786;12.080;2023-03-19T04:50:52;9.73;;;6.40;;
13483;SDS011;6814;57.786;12.080;2023-03-19T04:53:21;13.00;;;7.00;;
13483;SDS011;6814;57.786;12.080;2023-03-19T04:55:48;10.17;;;6.97;;
13483;SDS011;6814;57.786;12.080;2023-03-19T04:58:14;11.77;;;6.70;;
13483;SDS011;6814;57.786;12.080;2023-03-19T05:00:42;10.83;;;6.37;;
13483;SDS011;6814;57.786;12.080;2023-03-19T05:03:10;10.63;;;6.67;;
13483;SDS011;6814;57.786;12.080;2023-03-19T05:05:37;13.07;;;7.60;;
13483;SDS011;6814;57.786;12.080;2023-03-19T05:08:03;11.83;;;6.90;;
13483;SDS011;6814;57.786;12.080;2023-03-19T05:10:30;13.03;;;7.03;;
13483;SDS011;6814;57.786;12.080;2023-03-19T05:12:57;12.17;;;7.00;;
13483;SDS011;6814;57.786;12.080;2023-03-19T05:15:23;14.77;;;7.23;;
13483;SDS011;6814;57.786;12.080;2023-03-19T05:17:51;11.17;;;6.43;;
13483;SDS011;6814;57.786;12.080;2023-03-19T05:20:17;10.83;;;6.60;;
13483;SDS011;6814;57.786;12.080;2023-03-19T05:22:44;10.73;;;6.73;;
13483;SDS011;6814;57.786;12.080;2023-03-19T05:25:11;13.50;;;6.70;;
13483;SDS011;6814;57.786;12.080;2023-03-19T05:27:37;13.83;;;7.80;;
13483;SDS011;6814;57.786;12.080;2023-03-19T05:30:04;12.23;;;6.80;;
13483;SDS011;6814;57.786;12.080;2023-03-19T05:32:31;9.60;;;5.93;;
13483;SDS011;6814;57.786;12.080;2023-03-19T05:34:59;13.60;;;7.00;;
13483;SDS011;6814;57.786;12.080;2023-03-19T05:37:25;9.67;;;6.50;;
13483;SDS011;6814;57.786;12.080;2023-03-19T05:39:52;10.80;;;6.57;;
13483;SDS011;6814;57.786;12.080;2023-03-19T05:42:18;12.30;;;6.67;;
13483;SDS011;6814;57.786;12.080;2023-03-19T05:44:46;11.37;;;6.97;;
13483;SDS011;6814;57.786;12.080;2023-03-19T05:47:13;10.93;;;6.40;;
13483;SDS011;6814;57.786;12.080;2023-03-19T05:49:40;11.67;;;6.63;;
13483;SDS011;6814;57.786;12.080;2023-03-19T05:52:08;11.90;;;6.40;;
13483;SDS011;6814;57.786;12.080;2023-03-19T05:54:35;9.63;;;6.40;;
13483;SDS011;6814;57.786;12.080;2023-03-19T05:57:01;10.47;;;6.07;;
13483;SDS011;6814;57.786;12.080;2023-03-19T05:59:28;11.40;;;7.23;;
13483;SDS011;6814;57.786;12.080;2023-03-19T06:01:54;10.87;;;6.60;;
13483;SDS011;6814;57.786;12.080;2023-03-19T06:04:21;11.73;;;6.47;;
13483;SDS011;6814;57.786;12.080;2023-03-19T06:06:47;11.10;;;6.83;;
13483;SDS011;6814;57.786;12.080;2023-03-19T06:09:15;9.63;;;6.27;;
13483;SDS011;6814;57.786;12.080;2023-03-19T06:11:42;9.43;;;6.33;;
13483;SDS011;6814;57.786;12.080;2023-03-19T06:14:08;10.13;;;6.77;;
13483;SDS011;6814;57.786;12.080;2023-03-19T06:16:35;12.50;;;7.20;;
13483;SDS011;6814;57.786;12.080;2023-03-19T06:19:02;14.20;;;7.37;;
13483;SDS011;6814;57.786;12.080;2023-03-19T06:21:28;14.37;;;7.67;;
13483;SDS011;6814;57.786;12.080;2023-03-19T06:23:55;14.40;;;7.43;;
13483;SDS011;6814;57.786;12.080;2023-03-19T06:26:23;12.77;;;6.97;;
13483;SDS011;6814;57.786;12.080;2023-03-19T06:28:50;11.97;;;6.90;;
13483;SDS011;6814;57.786;12.080;2023-03-19T06:31:16;10.27;;;6.53;;
13483;SDS011;6814;57.786;12.080;2023-03-19T06:33:45;8.87;;;6.60;;
13483;SDS011;6814;57.786;12.080;2023-03-19T06:36:11;9.60;;;6.60;;
13483;SDS011;6814;57.786;12.080;2023-03-19T06:38:38;12.10;;;7.07;;
13483;SDS011;6814;57.786;12.080;2023-03-19T06:41:04;11.97;;;6.90;;
13483;SDS011;6814;57.786;12.080;2023-03-19T06:43:32;14.67;;;7.30;;
13483;SDS011;6814;57.786;12.080;2023-03-19T06:46:01;10.10;;;6.53;;
13483;SDS011;6814;57.786;12.080;2023-03-19T06:48:27;11.57;;;7.30;;
13483;SDS011;6814;57.786;12.080;2023-03-19T06:50:53;11.87;;;7.27;;
13483;SDS011;6814;57.786;12.080;2023-03-19T06:53:20;9.77;;;6.40;;
13483;SDS011;6814;57.786;12.080;2023-03-19T06:55:46;8.93;;;6.63;;
13483;SDS011;6814;57.786;12.080;2023-03-19T06:58:13;11.63;;;6.53;;
13483;SDS011;6814;57.786;12.080;2023-03-19T07:00:40;9.83;;;6.50;;
13483;SDS011;6814;57.786;12.080;2023-03-19T07:03:07;7.87;;;6.17;;
13483;SDS011;6814;57.786;12.080;2023-03-19T07:05:34;9.97;;;6.43;;
13483;SDS011;6814;57.786;12.080;2023-03-19T07:08:00;8.00;;;5.93;;
13483;SDS011;6814;57.786;12.080;2023-03-19T07:10:27;8.67;;;5.17;;
13483;SDS011;6814;57.786;12.080;2023-03-19T07:12:54;7.77;;;5.87;;
13483;SDS011;6814;57.786;12.080;2023-03-19T07:15:20;6.40;;;5.03;;
13483;SDS011;6814;57.786;12.080;2023-03-19T07:17:48;8.60;;;5.40;;
13483;SDS011;6814;57.786;12.080;2023-03-19T07:20:15;6.03;;;5.07;;
13483;SDS011;6814;57.786;12.080;2023-03-19T07:22:41;6.67;;;5.37;;
13483;SDS011;6814;57.786;12.080;2023-03-19T07:25:08;6.00;;;4.90;;
13483;SDS011;6814;57.786;12.080;2023-03-19T07:27:34;5.00;;;4.50;;
13483;SDS011;6814;57.786;12.080;2023-03-19T07:30:01;5.13;;;4.03;;
13483;SDS011;6814;57.786;12.080;2023-03-19T07:32:28;4.50;;;3.70;;
13483;SDS011;6814;57.786;12.080;2023-03-19T07:34:56;4.63;;;4.10;;
13483;SDS011;6814;57.786;12.080;2023-03-19T07:37:22;5.20;;;4.70;;
13483;SDS011;6814;57.786;12.080;2023-03-19T07:39:48;4.97;;;4.47;;
13483;SDS011;6814;57.786;12.080;2023-03-19T07:42:15;5.93;;;4.10;;
13483;SDS011;6814;57.786;12.080;2023-03-19T07:44:41;3.83;;;3.40;;
13483;SDS011;6814;57.786;12.080;2023-03-19T07:47:08;3.60;;;3.30;;
13483;SDS011;6814;57.786;12.080;2023-03-19T07:49:34;3.43;;;3.13;;
13483;SDS011;6814;57.786;12.080;2023-03-19T07:52:02;6.57;;;3.43;;
13483;SDS011;6814;57.786;12.080;2023-03-19T07:54:29;4.03;;;3.20;;
13483;SDS011;6814;57.786;12.080;2023-03-19T07:56:56;3.00;;;2.67;;
13483;SDS011;6814;57.786;12.080;2023-03-19T07:59:22;3.37;;;2.90;;
13483;SDS011;6814;57.786;12.080;2023-03-19T08:01:49;2.90;;;2.70;;
13483;SDS011;6814;57.786;12.080;2023-03-19T08:04:15;3.00;;;2.70;;
13483;SDS011;6814;57.786;12.080;2023-03-19T08:06:42;2.97;;;2.67;;
13483;SDS011;6814;57.786;12.080;2023-03-19T08:09:09;5.63;;;3.33;;
13483;SDS011;6814;57.786;12.080;2023-03-19T08:11:36;3.97;;;3.30;;
13483;SDS011;6814;57.786;12.080;2023-03-19T08:14:02;3.97;;;3.10;;
13483;SDS011;6814;57.786;12.080;2023-03-19T08:16:29;3.47;;;3.17;;
13483;SDS011;6814;57.786;12.080;2023-03-19T08:18:55;5.43;;;3.40;;
13483;SDS011;6814;57.786;12.080;2023-03-19T08:21:22;3.40;;;3.10;;
13483;SDS011;6814;57.786;12.080;2023-03-19T08:23:48;3.50;;;2.97;;
13483;SDS011;6814;57.786;12.080;2023-03-19T08:26:16;3.17;;;2.80;;
13483;SDS011;6814;57.786;12.080;2023-03-19T08:28:43;4.30;;;3.37;;
13483;SDS011;6814;57.786;12.080;2023-03-19T08:31:10;3.87;;;3.40;;
13483;SDS011;6814;57.786;12.080;2023-03-19T08:33:37;4.43;;;3.40;;
13483;SDS011;6814;57.786;12.080;2023-03-19T08:36:05;4.57;;;3.53;;
13483;SDS011;6814;57.786;12.080;2023-03-19T08:38:31;3.43;;;3.13;;
13483;SDS011;6814;57.786;12.080;2023-03-19T08:40:58;4.67;;;3.63;;
13483;SDS011;6814;57.786;12.080;2023-03-19T08:43:27;4.17;;;3.60;;
13483;SDS011;6814;57.786;12.080;2023-03-19T08:45:54;4.67;;;4.03;;
13483;SDS011;6814;57.786;12.080;2023-03-19T08:48:20;6.70;;;4.63;;
13483;SDS011;6814;57.786;12.080;2023-03-19T08:50:50;5.53;;;3.80;;
13483;SDS011;6814;57.786;12.080;2023-03-19T08:53:17;9.77;;;4.70;;
13483;SDS011;6814;57.786;12.080;2023-03-19T08:55:43;5.87;;;4.73;;
13483;SDS011;6814;57.786;12.080;2023-03-19T08:58:10;6.80;;;4.97;;
13483;SDS011;6814;57.786;12.080;2023-03-19T09:00:37;7.20;;;4.37;;
13483;SDS011;6814;57.786;12.080;2023-03-19T09:03:04;5.07;;;4.57;;
13483;SDS011;6814;57.786;12.080;2023-03-19T09:05:31;5.00;;;4.50;;
13483;SDS011;6814;57.786;12.080;2023-03-19T09:07:57;6.67;;;4.80;;
13483;SDS011;6814;57.786;12.080;2023-03-19T09:10:23;8.03;;;4.40;;
13483;SDS011;6814;57.786;12.080;2023-03-19T09:12:50;4.80;;;4.30;;
13483;SDS011;6814;57.786;12.080;2023-03-19T09:15:17;4.60;;;4.13;;
13483;SDS011;6814;57.786;12.080;2023-03-19T09:17:44;5.53;;;4.40;;
13483;SDS011;6814;57.786;12.080;2023-03-19T09:20:11;4.50;;;4.03;;
13483;SDS011;6814;57.786;12.080;2023-03-19T09:22:37;5.30;;;4.47;;
13483;SDS011;6814;57.786;12.080;2023-03-19T09:25:04;4.83;;;4.30;;
13483;SDS011;6814;57.786;12.080;2023-03-19T09:27:31;5.73;;;4.67;;
13483;SDS011;6814;57.786;12.080;2023-03-19T09:29:57;3.77;;;3.37;;
13483;SDS011;6814;57.786;12.080;2023-03-19T09:32:24;3.83;;;3.47;;
13483;SDS011;6814;57.786;12.080;2023-03-19T09:34:51;4.03;;;3.73;;
13483;SDS011;6814;57.786;12.080;2023-03-19T09:37:18;3.97;;;3.47;;
13483;SDS011;6814;57.786;12.080;2023-03-19T09:39:44;3.80;;;3.50;;
13483;SDS011;6814;57.786;12.080;2023-03-19T09:42:14;3.57;;;3.27;;
13483;SDS011;6814;57.786;12.080;2023-03-19T09:44:42;3.43;;;3.13;;
13483;SDS011;6814;57.786;12.080;2023-03-19T09:47:14;3.50;;;3.20;;
13483;SDS011;6814;57.786;12.080;2023-03-19T09:49:47;3.40;;;3.10;;
13483;SDS011;6814;57.786;12.080;2023-03-19T09:52:19;3.60;;;3.30;;
13483;SDS011;6814;57.786;12.080;2023-03-19T09:54:48;3.33;;;3.13;;
13483;SDS011;6814;57.786;12.080;2023-03-19T09:57:16;3.17;;;2.87;;
13483;SDS011;6814;57.786;12.080;2023-03-19T09:59:43;3.30;;;3.00;;
13483;SDS011;6814;57.786;12.080;2023-03-19T10:02:28;2.77;;;2.57;;
13483;SDS011;6814;57.786;12.080;2023-03-19T10:05:00;3.37;;;3.07;;
13483;SDS011;6814;57.786;12.080;2023-03-19T10:07:38;3.37;;;3.17;;
13483;SDS011;6814;57.786;12.080;2023-03-19T10:10:15;3.03;;;2.83;;
13483;SDS011;6814;57.786;12.080;2023-03-19T10:12:47;5.23;;;4.73;;
13483;SDS011;6814;57.786;12.080;2023-03-19T10:15:20;4.80;;;4.30;;
13483;SDS011;6814;57.786;12.080;2023-03-19T10:17:52;6.40;;;5.80;;
13483;SDS011;6814;57.786;12.080;2023-03-19T10:20:21;6.80;;;6.10;;
13483;SDS011;6814;57.786;12.080;2023-03-19T10:22:52;7.60;;;6.20;;
13483;SDS011;6814;57.786;12.080;2023-03-19T10:25:21;7.10;;;6.40;;
13483;SDS011;6814;57.786;12.080;2023-03-19T10:27:49;7.87;;;7.07;;
13483;SDS011;6814;57.786;12.080;2023-03-19T10:30:19;6.90;;;6.20;;
13483;SDS011;6814;57.786;12.080;2023-03-19T10:32:47;7.83;;;7.03;;
13483;SDS011;6814;57.786;12.080;2023-03-19T10:35:19;8.10;;;7.30;;
13483;SDS011;6814;57.786;12.080;2023-03-19T10:37:47;7.83;;;7.03;;
13483;SDS011;6814;57.786;12.080;2023-03-19T10:40:18;7.23;;;6.37;;
13483;SDS011;6814;57.786;12.080;2023-03-19T10:42:50;7.47;;;6.77;;
13483;SDS011;6814;57.786;12.080;2023-03-19T10:45:20;7.20;;;6.50;;
13483;SDS011;6814;57.786;12.080;2023-03-19T10:47:50;6.33;;;5.73;;
13483;SDS011;6814;57.786;12.080;2023-03-19T10:50:17;7.07;;;6.40;;
13483;SDS011;6814;57.786;12.080;2023-03-19T10:52:44;5.73;;;5.13;;
13483;SDS011;6814;57.786;12.080;2023-03-19T10:55:16;5.33;;;4.83;;
13483;SDS011;6814;57.786;12.080;2023-03-19T10:57:45;6.97;;;5.83;;
13483;SDS011;6814;57.786;12.080;2023-03-19T11:00:14;6.60;;;6.00;;
13483;SDS011;6814;57.786;12.080;2023-03-19T11:02:45;5.97;;;5.37;;
13483;SDS011;6814;57.786;12.080;2023-03-19T11:05:20;5.27;;;4.80;;
13483;SDS011;6814;57.786;12.080;2023-03-19T11:07:47;5.10;;;4.70;;
13483;SDS011;6814;57.786;12.080;2023-03-19T11:10:14;5.17;;;4.73;;
13483;SDS011;6814;57.786;12.080;2023-03-19T11:12:41;4.73;;;4.30;;
13483;SDS011;6814;57.786;12.080;2023-03-19T11:15:15;4.97;;;4.57;;
13483;SDS011;6814;57.786;12.080;2023-03-19T11:17:44;4.03;;;3.63;;
13483;SDS011;6814;57.786;12.080;2023-03-19T11:20:17;4.03;;;3.67;;
13483;SDS011;6814;57.786;12.080;2023-03-19T11:22:44;4.33;;;4.03;;
13483;SDS011;6814;57.786;12.080;2023-03-19T11:25:13;4.20;;;3.90;;
13483;SDS011;6814;57.786;12.080;2023-03-19T11:27:42;4.00;;;3.70;;
13483;SDS011;6814;57.786;12.080;2023-03-19T11:30:12;4.20;;;3.90;;
13483;SDS011;6814;57.786;12.080;2023-03-19T11:35:29;4.40;;;4.00;;
13483;SDS011;6814;57.786;12.080;2023-03-19T11:37:57;5.07;;;4.57;;
13483;SDS011;6814;57.786;12.080;2023-03-19T11:40:30;4.40;;;4.00;;
13483;SDS011;6814;57.786;12.080;2023-03-19T11:45:40;4.67;;;4.27;;
13483;SDS011;6814;57.786;12.080;2023-03-19T11:48:15;4.40;;;4.10;;
13483;SDS011;6814;57.786;12.080;2023-03-19T11:50:48;4.70;;;4.30;;
13483;SDS011;6814;57.786;12.080;2023-03-19T11:53:20;5.20;;;4.80;;
13483;SDS011;6814;57.786;12.080;2023-03-19T11:55:50;4.63;;;4.33;;
13483;SDS011;6814;57.786;12.080;2023-03-19T11:58:28;5.00;;;4.60;;
13483;SDS011;6814;57.786;12.080;2023-03-19T12:01:01;4.77;;;4.37;;
13483;SDS011;6814;57.786;12.080;2023-03-19T12:03:34;4.67;;;4.27;;
13483;SDS011;6814;57.786;12.080;2023-03-19T12:06:11;4.90;;;4.50;;
13483;SDS011;6814;57.786;12.080;2023-03-19T12:08:41;4.60;;;4.20;;
13483;SDS011;6814;57.786;12.080;2023-03-19T12:11:13;4.83;;;4.43;;
13483;SDS011;6814;57.786;12.080;2023-03-19T12:13:54;4.67;;;4.27;;
13483;SDS011;6814;57.786;12.080;2023-03-19T12:16:26;4.10;;;3.80;;
13483;SDS011;6814;57.786;12.080;2023-03-19T12:19:02;4.17;;;3.87;;
13483;SDS011;6814;57.786;12.080;2023-03-19T12:21:38;3.47;;;3.20;;
13483;SDS011;6814;57.786;12.080;2023-03-19T12:24:09;3.87;;;3.57;;
13483;SDS011;6814;57.786;12.080;2023-03-19T12:26:44;4.10;;;3.70;;
13483;SDS011;6814;57.786;12.080;2023-03-19T12:29:14;3.93;;;3.63;;
13483;SDS011;6814;57.786;12.080;2023-03-19T12:31:46;4.60;;;3.80;;
13483;SDS011;6814;57.786;12.080;2023-03-19T12:34:18;4.00;;;3.70;;
13483;SDS011;6814;57.786;12.080;2023-03-19T12:36:50;4.23;;;3.50;;
13483;SDS011;6814;57.786;12.080;2023-03-19T12:39:19;4.33;;;3.87;;
13483;SDS011;6814;57.786;12.080;2023-03-19T12:41:47;3.93;;;3.53;;
13483;SDS011;6814;57.786;12.080;2023-03-19T12:44:17;4.10;;;3.80;;
13483;SDS011;6814;57.786;12.080;2023-03-19T12:46:47;3.93;;;3.63;;
13483;SDS011;6814;57.786;12.080;2023-03-19T12:49:15;4.60;;;3.67;;
13483;SDS011;6814;57.786;12.080;2023-03-19T12:51:45;4.13;;;3.70;;
13483;SDS011;6814;57.786;12.080;2023-03-19T12:54:17;4.33;;;3.93;;
13483;SDS011;6814;57.786;12.080;2023-03-19T12:56:46;4.10;;;3.80;;
13483;SDS011;6814;57.786;12.080;2023-03-19T12:59:16;4.13;;;3.70;;
13483;SDS011;6814;57.786;12.080;2023-03-19T13:01:46;4.40;;;4.00;;
13483;SDS011;6814;57.786;12.080;2023-03-19T13:04:15;4.07;;;3.77;;
13483;SDS011;6814;57.786;12.080;2023-03-19T13:06:45;4.00;;;3.70;;
13483;SDS011;6814;57.786;12.080;2023-03-19T13:09:17;4.40;;;4.00;;
13483;SDS011;6814;57.786;12.080;2023-03-19T13:11:47;3.90;;;3.60;;
13483;SDS011;6814;57.786;12.080;2023-03-19T13:14:17;3.87;;;3.57;;
13483;SDS011;6814;57.786;12.080;2023-03-19T13:16:47;3.90;;;3.60;;
13483;SDS011;6814;57.786;12.080;2023-03-19T13:19:18;3.47;;;3.27;;
13483;SDS011;6814;57.786;12.080;2023-03-19T13:21:47;3.43;;;3.13;;
13483;SDS011;6814;57.786;12.080;2023-03-19T13:24:18;3.00;;;2.80;;
13483;SDS011;6814;57.786;12.080;2023-03-19T13:26:46;3.40;;;3.20;;
13483;SDS011;6814;57.786;12.080;2023-03-19T13:29:15;3.53;;;3.23;;
13483;SDS011;6814;57.786;12.080;2023-03-19T13:31:44;3.73;;;3.47;;
13483;SDS011;6814;57.786;12.080;2023-03-19T13:34:17;3.93;;;3.57;;
13483;SDS011;6814;57.786;12.080;2023-03-19T13:36:46;4.07;;;3.77;;
13483;SDS011;6814;57.786;12.080;2023-03-19T13:39:13;3.73;;;3.43;;
13483;SDS011;6814;57.786;12.080;2023-03-19T13:42:05;3.67;;;3.40;;
13483;SDS011;6814;57.786;12.080;2023-03-19T13:44:34;3.50;;;3.30;;
13483;SDS011;6814;57.786;12.080;2023-03-19T13:47:01;3.27;;;3.07;;
13483;SDS011;6814;57.786;12.080;2023-03-19T13:49:29;4.67;;;2.90;;
13483;SDS011;6814;57.786;12.080;2023-03-19T13:51:58;3.77;;;3.40;;
13483;SDS011;6814;57.786;12.080;2023-03-19T13:54:35;3.43;;;3.13;;
13483;SDS011;6814;57.786;12.080;2023-03-19T13:57:10;3.37;;;3.13;;
13483;SDS011;6814;57.786;12.080;2023-03-19T13:59:42;3.20;;;2.93;;
13483;SDS011;6814;57.786;12.080;2023-03-19T14:04:51;3.33;;;3.13;;
13483;SDS011;6814;57.786;12.080;2023-03-19T14:07:21;4.37;;;4.07;;
13483;SDS011;6814;57.786;12.080;2023-03-19T14:09:50;5.67;;;5.17;;
13483;SDS011;6814;57.786;12.080;2023-03-19T14:12:31;5.63;;;5.10;;
13483;SDS011;6814;57.786;12.080;2023-03-19T14:14:59;6.10;;;5.50;;
13483;SDS011;6814;57.786;12.080;2023-03-19T14:17:29;5.97;;;4.80;;
13483;SDS011;6814;57.786;12.080;2023-03-19T14:19:59;6.47;;;5.13;;
13483;SDS011;6814;57.786;12.080;2023-03-19T14:22:30;7.60;;;6.90;;
13483;SDS011;6814;57.786;12.080;2023-03-19T14:25:03;8.77;;;6.87;;
13483;SDS011;6814;57.786;12.080;2023-03-19T14:27:31;7.33;;;6.63;;
13483;SDS011;6814;57.786;12.080;2023-03-19T14:29:58;6.00;;;5.40;;
13483;SDS011;6814;57.786;12.080;2023-03-19T14:32:30;5.60;;;5.10;;
13483;SDS011;6814;57.786;12.080;2023-03-19T14:34:58;7.40;;;6.00;;
13483;SDS011;6814;57.786;12.080;2023-03-19T14:37:25;9.43;;;6.70;;
13483;SDS011;6814;57.786;12.080;2023-03-19T14:39:56;10.07;;;7.33;;
13483;SDS011;6814;57.786;12.080;2023-03-19T14:42:24;7.80;;;7.00;;
13483;SDS011;6814;57.786;12.080;2023-03-19T14:47:44;8.63;;;7.53;;
13483;SDS011;6814;57.786;12.080;2023-03-19T14:50:26;7.27;;;6.53;;
13483;SDS011;6814;57.786;12.080;2023-03-19T14:52:58;9.93;;;7.53;;
13483;SDS011;6814;57.786;12.080;2023-03-19T14:55:33;8.17;;;6.97;;